Time;durP1;ratioP1;P1;durP2;ratioP2;P2;SDS_P1;SDS_P2;PMS_P1;PMS_P2;Temp;Humidity;BMP_temperature;BMP_pressure;BME280_temperature;BME280_humidity;BME280_pressure;Samples;Min_cycle;Max_cycle;Signal;HPM_P1;HPM_P2
2022/12/16 00:00:44;;;;;;;9.48;6.75;;;;;;;;;;2099476;28;20032;-79
2022/12/16 00:02:03;;;;;;;11.90;7.72;;;;;;;;;;2101262;28;20071;-79
2022/12/16 00:03:22;;;;;;;11.20;7.75;;;;;;;;;;2099330;28;20500;-79
2022/12/16 00:04:41;;;;;;;9.70;7.32;;;;;;;;;;2099241;28;20032;-79
2022/12/16 00:06:03;;;;;;;11.55;7.57;;;;;;;;;;2095089;28;20513;-78
2022/12/16 00:07:22;;;;;;;10.65;7.18;;;;;;;;;;2099726;28;20032;-79
2022/12/16 00:08:41;;;;;;;15.25;8.73;;;;;;;;;;2100999;28;20024;-78
2022/12/16 00:10:00;;;;;;;13.38;8.27;;;;;;;;;;2099883;28;20088;-79
2022/12/16 00:11:19;;;;;;;16.02;8.77;;;;;;;;;;2095062;28;20496;-78
2022/12/16 00:12:38;;;;;;;13.80;8.93;;;;;;;;;;2100513;28;20058;-79
2022/12/16 00:13:57;;;;;;;15.95;8.00;;;;;;;;;;2100633;28;20028;-78
2022/12/16 00:15:16;;;;;;;13.00;8.80;;;;;;;;;;2097756;28;20517;-78
2022/12/16 00:16:35;;;;;;;15.85;9.98;;;;;;;;;;2098864;28;20036;-78
2022/12/16 00:17:54;;;;;;;14.75;9.02;;;;;;;;;;2095427;28;20024;-78
2022/12/16 00:19:13;;;;;;;16.80;10.50;;;;;;;;;;2096734;28;20139;-78
2022/12/16 00:20:31;;;;;;;13.27;9.25;;;;;;;;;;2096646;28;20060;-78
2022/12/16 00:21:50;;;;;;;16.35;9.30;;;;;;;;;;2097712;28;20167;-78
2022/12/16 00:23:09;;;;;;;16.02;8.93;;;;;;;;;;2091985;28;20025;-78
2022/12/16 00:24:30;;;;;;;14.13;9.38;;;;;;;;;;2094108;28;20032;-78
2022/12/16 00:25:49;;;;;;;16.50;9.45;;;;;;;;;;2097578;28;20052;-78
2022/12/16 00:27:08;;;;;;;12.55;9.02;;;;;;;;;;2098600;28;20036;-78
2022/12/16 00:28:27;;;;;;;13.75;8.82;;;;;;;;;;2097779;28;20103;-80
2022/12/16 00:29:46;;;;;;;17.10;9.10;;;;;;;;;;2095703;28;20028;-78
2022/12/16 00:31:05;;;;;;;18.15;9.23;;;;;;;;;;2096614;28;20032;-78
2022/12/16 00:32:24;;;;;;;18.10;8.85;;;;;;;;;;2096719;28;20040;-78
2022/12/16 00:33:42;;;;;;;17.85;9.52;;;;;;;;;;2105633;28;20056;-78
2022/12/16 00:35:01;;;;;;;15.27;9.02;;;;;;;;;;2099594;28;20024;-78
2022/12/16 00:36:21;;;;;;;14.38;9.07;;;;;;;;;;2100033;28;20029;-78
2022/12/16 00:37:40;;;;;;;15.98;8.73;;;;;;;;;;2098514;28;20405;-78
2022/12/16 00:38:58;;;;;;;17.88;9.80;;;;;;;;;;2098274;28;20448;-79
2022/12/16 00:40:18;;;;;;;20.38;9.40;;;;;;;;;;2097430;28;20036;-78
2022/12/16 00:41:37;;;;;;;16.42;9.63;;;;;;;;;;2096480;28;20024;-79
2022/12/16 00:42:55;;;;;;;16.98;9.25;;;;;;;;;;2101655;28;20480;-78
2022/12/16 00:44:14;;;;;;;15.27;8.55;;;;;;;;;;2098575;28;20032;-80
2022/12/16 00:45:33;;;;;;;19.40;9.80;;;;;;;;;;2096464;28;20452;-78
2022/12/16 00:46:52;;;;;;;16.48;10.10;;;;;;;;;;2097029;28;20440;-78
2022/12/16 00:48:11;;;;;;;18.38;9.18;;;;;;;;;;2097123;28;20032;-78
2022/12/16 00:49:30;;;;;;;16.73;8.88;;;;;;;;;;2096419;28;20024;-80
2022/12/16 00:50:49;;;;;;;13.38;8.77;;;;;;;;;;2099687;28;20028;-79
2022/12/16 00:52:08;;;;;;;21.10;9.18;;;;;;;;;;2100581;28;20029;-77
2022/12/16 00:53:27;;;;;;;20.67;9.77;;;;;;;;;;2096308;28;20020;-78
2022/12/16 00:54:46;;;;;;;16.90;9.65;;;;;;;;;;2096748;28;20476;-79
2022/12/16 00:56:06;;;;;;;16.23;9.75;;;;;;;;;;2099597;28;20064;-78
2022/12/16 00:57:25;;;;;;;16.95;9.70;;;;;;;;;;2099810;28;20028;-78
2022/12/16 00:58:44;;;;;;;19.10;9.48;;;;;;;;;;2101088;28;20420;-78
2022/12/16 01:00:04;;;;;;;20.23;9.73;;;;;;;;;;2099138;28;20505;-77
2022/12/16 01:01:23;;;;;;;16.63;9.88;;;;;;;;;;2097427;28;20024;-79
2022/12/16 01:02:44;;;;;;;17.05;9.93;;;;;;;;;;2100108;28;20456;-77
2022/12/16 01:04:03;;;;;;;18.55;7.82;;;;;;;;;;2100865;28;20388;-79
2022/12/16 01:05:25;;;;;;;16.42;9.63;;;;;;;;;;2101747;28;20060;-78
2022/12/16 01:06:45;;;;;;;18.95;9.85;;;;;;;;;;2096609;28;20036;-80
2022/12/16 01:08:04;;;;;;;16.67;9.80;;;;;;;;;;2100935;28;20025;-78
2022/12/16 01:09:23;;;;;;;14.70;8.90;;;;;;;;;;2096184;28;20028;-79
2022/12/16 01:10:41;;;;;;;14.02;9.10;;;;;;;;;;2101064;28;20048;-78
2022/12/16 01:12:00;;;;;;;16.20;8.77;;;;;;;;;;2095333;28;20029;-78
2022/12/16 01:13:19;;;;;;;15.90;8.80;;;;;;;;;;2095873;28;20029;-78
2022/12/16 01:14:38;;;;;;;13.95;9.18;;;;;;;;;;2095741;28;20016;-78
2022/12/16 01:16:01;;;;;;;13.32;8.73;;;;;;;;;;2103683;28;20111;-77
2022/12/16 01:17:19;;;;;;;;;;;;;;;;;;2099722;28;20025;-78
2022/12/16 01:18:38;;;;;;;14.55;9.35;;;;;;;;;;2099729;28;19904;-79
2022/12/16 01:19:57;;;;;;;15.68;9.70;;;;;;;;;;2095697;28;20128;-78
2022/12/16 01:21:16;;;;;;;16.65;10.30;;;;;;;;;;2106449;28;20528;-79
2022/12/16 01:22:36;;;;;;;13.93;9.15;;;;;;;;;;2100968;28;20020;-80
2022/12/16 01:23:54;;;;;;;15.80;8.23;;;;;;;;;;2101566;28;20035;-78
2022/12/16 01:25:14;;;;;;;14.82;9.30;;;;;;;;;;2101159;28;20064;-79
2022/12/16 01:26:33;;;;;;;16.35;9.05;;;;;;;;;;2101395;28;20028;-78
2022/12/16 01:27:52;;;;;;;14.85;9.07;;;;;;;;;;2099347;28;20040;-79
2022/12/16 01:29:11;;;;;;;12.68;9.65;;;;;;;;;;2095845;28;20559;-79
2022/12/16 01:30:30;;;;;;;14.35;9.63;;;;;;;;;;2096037;28;20025;-79
2022/12/16 01:31:48;;;;;;;15.52;9.82;;;;;;;;;;2098429;28;20020;-80
2022/12/16 01:33:08;;;;;;;11.40;9.02;;;;;;;;;;2098252;28;20032;-78
2022/12/16 01:34:27;;;;;;;15.07;9.48;;;;;;;;;;2096755;28;20106;-78
2022/12/16 01:35:46;;;;;;;15.82;9.77;;;;;;;;;;2096433;28;20021;-78
2022/12/16 01:37:05;;;;;;;17.30;9.43;;;;;;;;;;2096263;28;20075;-78
2022/12/16 01:38:24;;;;;;;17.67;10.35;;;;;;;;;;2099306;28;20037;-79
2022/12/16 01:39:43;;;;;;;14.05;8.38;;;;;;;;;;2097111;28;20028;-79
2022/12/16 01:41:02;;;;;;;17.38;10.15;;;;;;;;;;2098263;28;20029;-79
2022/12/16 01:42:21;;;;;;;12.85;9.05;;;;;;;;;;2100243;28;20037;-79
2022/12/16 01:43:41;;;;;;;13.98;9.27;;;;;;;;;;2098238;28;20063;-80
2022/12/16 01:45:39;;;;;;;15.32;9.85;;;;;;;;;;2097808;28;20036;-82
2022/12/16 01:47:00;;;;;;;15.95;9.55;;;;;;;;;;2066172;28;20042;-79
2022/12/16 01:48:26;;;;;;;16.27;9.80;;;;;;;;;;2073160;28;20901;-79
2022/12/16 01:50:08;;;;;;;14.50;9.70;;;;;;;;;;2067806;28;20033;-79
2022/12/16 01:51:32;;;;;;;12.63;9.55;;;;;;;;;;2075865;28;20505;-79
2022/12/16 01:52:55;;;;;;;15.65;10.20;;;;;;;;;;2098312;28;20481;-79
2022/12/16 01:54:17;;;;;;;14.32;9.55;;;;;;;;;;2100455;28;20139;-79
2022/12/16 01:55:45;;;;;;;14.25;8.77;;;;;;;;;;2091010;28;20103;-79
2022/12/16 01:57:08;;;;;;;20.77;9.50;;;;;;;;;;2093410;28;20608;-79
2022/12/16 01:58:29;;;;;;;19.42;10.38;;;;;;;;;;2099646;28;20017;-79
2022/12/16 01:59:50;;;;;;;13.73;9.30;;;;;;;;;;2104965;28;20028;-79
2022/12/16 02:01:09;;;;;;;17.70;9.30;;;;;;;;;;2099988;28;20505;-80
2022/12/16 02:02:28;;;;;;;13.88;9.43;;;;;;;;;;2096361;28;20024;-79
2022/12/16 02:03:47;;;;;;;11.07;8.13;;;;;;;;;;2095341;28;20055;-79
2022/12/16 02:05:21;;;;;;;14.35;8.18;;;;;;;;;;2096505;28;20032;-79
2022/12/16 02:06:40;;;;;;;13.43;8.77;;;;;;;;;;2100350;28;20073;-79
2022/12/16 02:07:59;;;;;;;14.88;8.05;;;;;;;;;;2089875;28;20025;-79
2022/12/16 02:09:18;;;;;;;11.60;8.15;;;;;;;;;;2093348;28;20016;-79
2022/12/16 02:10:46;;;;;;;13.65;8.02;;;;;;;;;;2095634;28;20012;-79
2022/12/16 02:12:08;;;;;;;17.15;8.20;;;;;;;;;;2097841;28;20021;-79
2022/12/16 02:13:33;;;;;;;24.08;8.15;;;;;;;;;;2094642;28;20052;-78
2022/12/16 02:15:03;;;;;;;16.90;8.13;;;;;;;;;;2097674;28;20221;-79
2022/12/16 02:16:34;;;;;;;13.70;8.68;;;;;;;;;;2099469;28;20051;-79
2022/12/16 02:18:05;;;;;;;17.27;8.15;;;;;;;;;;2096203;28;20100;-80
2022/12/16 02:19:43;;;;;;;15.25;8.07;;;;;;;;;;2105208;28;20178;-79
2022/12/16 02:21:29;;;;;;;16.88;8.73;;;;;;;;;;2099657;28;20474;-80
2022/12/16 02:23:01;;;;;;;14.20;7.95;;;;;;;;;;2099745;28;20036;-79
2022/12/16 02:24:39;;;;;;;17.13;9.50;;;;;;;;;;2099607;28;20028;-79
2022/12/16 02:26:04;;;;;;;17.70;9.48;;;;;;;;;;2106964;28;20036;-79
2022/12/16 02:27:32;;;;;;;14.90;9.70;;;;;;;;;;2100001;28;20028;-79
2022/12/16 02:29:09;;;;;;;16.45;10.30;;;;;;;;;;2096016;28;20037;-79
2022/12/16 02:30:49;;;;;;;15.55;9.73;;;;;;;;;;2091933;28;20021;-78
2022/12/16 02:32:26;;;;;;;15.18;10.57;;;;;;;;;;2098405;28;20143;-79
2022/12/16 02:33:57;;;;;;;13.93;9.32;;;;;;;;;;2099863;28;21378;-80
2022/12/16 02:35:22;;;;;;;19.23;10.93;;;;;;;;;;2098580;28;20028;-79
2022/12/16 02:36:50;;;;;;;21.20;10.50;;;;;;;;;;2098402;28;20111;-79
2022/12/16 02:38:27;;;;;;;16.13;9.07;;;;;;;;;;2097025;28;20032;-78
2022/12/16 02:39:52;;;;;;;13.50;9.18;;;;;;;;;;2100092;28;20028;-79
2022/12/16 02:41:26;;;;;;;31.13;11.40;;;;;;;;;;2097329;28;20036;-79
2022/12/16 02:43:01;;;;;;;22.50;10.07;;;;;;;;;;2101271;28;20028;-79
2022/12/16 02:44:25;;;;;;;15.57;9.77;;;;;;;;;;2101659;28;20039;-79
2022/12/16 02:45:44;;;;;;;14.43;10.45;;;;;;;;;;2099407;28;20064;-79
2022/12/16 02:47:03;;;;;;;14.70;9.55;;;;;;;;;;2097581;28;20069;-78
2022/12/16 02:48:22;;;;;;;15.30;9.90;;;;;;;;;;2095216;28;20111;-78
2022/12/16 02:49:47;;;;;;;16.67;9.82;;;;;;;;;;2096716;28;20036;-78
2022/12/16 02:51:07;;;;;;;13.23;9.55;;;;;;;;;;2095581;28;20099;-76
2022/12/16 02:52:28;;;;;;;13.93;9.52;;;;;;;;;;2100634;28;20024;-78
2022/12/16 02:53:48;;;;;;;12.00;9.32;;;;;;;;;;2107561;28;20016;-77
2022/12/16 02:55:08;;;;;;;15.68;9.93;;;;;;;;;;2099826;28;20496;-78
2022/12/16 02:56:45;;;;;;;14.60;10.15;;;;;;;;;;2099711;28;20021;-78
2022/12/16 02:58:05;;;;;;;23.00;10.38;;;;;;;;;;2099529;28;20024;-78
2022/12/16 02:59:47;;;;;;;17.08;10.30;;;;;;;;;;2100313;28;20032;-78
2022/12/16 03:01:15;;;;;;;33.63;9.70;;;;;;;;;;2101405;28;20028;-78
2022/12/16 03:02:57;;;;;;;18.95;9.18;;;;;;;;;;2107423;28;20024;-78
2022/12/16 03:04:19;;;;;;;19.15;10.30;;;;;;;;;;2098864;28;20493;-81
2022/12/16 03:05:40;;;;;;;14.38;7.35;;;;;;;;;;2107142;28;20039;-80
2022/12/16 03:07:00;;;;;;;15.80;10.20;;;;;;;;;;2100517;28;20029;-78
2022/12/16 03:08:23;;;;;;;18.50;11.82;;;;;;;;;;2097329;28;20032;-79
2022/12/16 03:09:42;;;;;;;;;;;;;;;;;;2099517;28;20024;-79
2022/12/16 03:11:03;;;;;;;17.52;11.65;;;;;;;;;;2097657;28;19913;-78
2022/12/16 03:12:22;;;;;;;16.85;11.23;;;;;;;;;;2104938;28;20028;-78
2022/12/16 03:13:43;;;;;;;19.33;12.35;;;;;;;;;;2102061;28;20024;-78
2022/12/16 03:15:03;;;;;;;17.90;11.90;;;;;;;;;;2107677;28;20451;-79
2022/12/16 03:16:25;;;;;;;19.48;11.30;;;;;;;;;;2100433;28;20024;-79
2022/12/16 03:17:48;;;;;;;18.00;11.48;;;;;;;;;;2101045;28;20016;-79
2022/12/16 03:19:10;;;;;;;19.38;11.45;;;;;;;;;;2097928;28;20845;-79
2022/12/16 03:20:35;;;;;;;15.90;10.95;;;;;;;;;;2107132;28;20032;-79
2022/12/16 03:21:57;;;;;;;16.40;10.50;;;;;;;;;;2099348;28;20032;-79
2022/12/16 03:23:19;;;;;;;15.70;11.17;;;;;;;;;;2098412;28;20401;-79
2022/12/16 03:24:38;;;;;;;15.18;10.38;;;;;;;;;;2099687;28;20283;-78
2022/12/16 03:26:03;;;;;;;17.83;11.30;;;;;;;;;;2099021;28;20033;-79
2022/12/16 03:27:25;;;;;;;17.45;11.48;;;;;;;;;;2099611;28;20500;-79
2022/12/16 03:28:47;;;;;;;19.05;12.23;;;;;;;;;;2101117;28;20028;-79
2022/12/16 03:30:08;;;;;;;20.75;12.20;;;;;;;;;;2094221;28;20405;-80
2022/12/16 03:31:39;;;;;;;15.68;11.93;;;;;;;;;;2095972;28;20016;-80
2022/12/16 03:33:01;;;;;;;17.33;11.52;;;;;;;;;;2093187;28;20025;-79
2022/12/16 03:34:44;;;;;;;17.73;11.73;;;;;;;;;;2093025;28;20040;-80
2022/12/16 03:36:05;;;;;;;17.90;10.85;;;;;;;;;;2097057;28;20024;-78
2022/12/16 03:37:28;;;;;;;17.42;11.55;;;;;;;;;;2101001;28;20489;-78
2022/12/16 03:38:47;;;;;;;16.48;11.63;;;;;;;;;;2099998;28;20040;-78
2022/12/16 03:40:07;;;;;;;16.23;11.35;;;;;;;;;;2101234;28;20144;-79
2022/12/16 03:41:27;;;;;;;20.73;12.52;;;;;;;;;;2098519;28;20460;-79
2022/12/16 03:42:47;;;;;;;20.80;12.80;;;;;;;;;;2097016;28;20473;-78
2022/12/16 03:44:06;;;;;;;24.10;12.93;;;;;;;;;;2091805;28;20025;-78
2022/12/16 03:45:29;;;;;;;23.10;13.15;;;;;;;;;;2103209;28;20032;-77
2022/12/16 03:46:48;;;;;;;19.90;13.52;;;;;;;;;;2108616;28;20028;-78
2022/12/16 03:48:08;;;;;;;23.30;13.85;;;;;;;;;;2101800;28;20036;-78
2022/12/16 03:49:27;;;;;;;24.30;12.40;;;;;;;;;;2089048;28;20033;-78
2022/12/16 03:50:46;;;;;;;21.60;12.05;;;;;;;;;;2101013;28;20016;-78
2022/12/16 03:52:05;;;;;;;23.20;13.30;;;;;;;;;;2099722;28;20029;-78
2022/12/16 03:53:25;;;;;;;46.83;12.65;;;;;;;;;;2097598;28;20024;-78
2022/12/16 03:54:44;;;;;;;23.70;11.32;;;;;;;;;;2099583;28;20564;-78
2022/12/16 03:56:03;;;;;;;25.05;11.48;;;;;;;;;;2100757;28;20103;-78
2022/12/16 03:57:22;;;;;;;20.33;11.20;;;;;;;;;;2100562;28;20108;-78
2022/12/16 03:58:41;;;;;;;17.15;10.45;;;;;;;;;;2099412;28;20107;-78
2022/12/16 04:00:00;;;;;;;21.15;11.15;;;;;;;;;;2100350;28;20966;-78
2022/12/16 04:01:19;;;;;;;20.23;11.60;;;;;;;;;;2100163;28;20112;-78
2022/12/16 04:02:38;;;;;;;18.17;9.75;;;;;;;;;;2096370;28;20020;-78
2022/12/16 04:03:57;;;;;;;29.70;10.88;;;;;;;;;;2098044;28;20031;-78
2022/12/16 04:05:16;;;;;;;24.60;10.35;;;;;;;;;;2096253;28;20549;-77
2022/12/16 04:06:35;;;;;;;20.27;10.35;;;;;;;;;;2107463;28;20039;-78
2022/12/16 04:07:54;;;;;;;39.78;11.98;;;;;;;;;;2099407;28;20032;-79
2022/12/16 04:09:13;;;;;;;19.95;10.88;;;;;;;;;;2095168;28;20029;-78
2022/12/16 04:25:21;;;;;;;21.48;11.43;;;;;;;;;;2101591;28;20032;-79
2022/12/16 04:28:18;;;;;;;23.35;11.50;;;;;;;;;;2099881;28;20020;-77
2022/12/16 04:30:17;;;;;;;22.92;11.15;;;;;;;;;;2099488;28;20028;-79
2022/12/16 04:31:16;;;;;;;27.30;11.02;;;;;;;;;;2101622;28;20493;-79
2022/12/16 04:34:24;;;;;;;26.95;11.10;;;;;;;;;;2101148;28;20071;-78
